Time;durP1;ratioP1;P1;durP2;ratioP2;P2;SDS_P1;SDS_P2;PMS_P1;PMS_P2;Temp;Humidity;BMP_temperature;BMP_pressure;BME280_temperature;BME280_humidity;BME280_pressure;Samples;Min_cycle;Max_cycle;Signal;HPM_P1;HPM_P2
2021/12/06 00:02:13;;;;;;;15.68;10.73;;;;;;;3.92;71.62;98392.22;5107568;29;20537;-70
2021/12/06 00:05:05;;;;;;;17.73;10.50;;;;;;;3.82;72.39;98399.94;5114427;29;20669;-70
2021/12/06 00:07:56;;;;;;;19.38;12.13;;;;;;;3.86;72.66;98398.75;5121314;28;20117;-68
2021/12/06 00:10:50;;;;;;;20.58;12.88;;;;;;;3.98;71.27;98399.63;5114891;28;20118;-69
2021/12/06 00:13:41;;;;;;;;;;;;;;;3.94;71.55;98399.03;5103107;29;20047;-69
2021/12/06 00:16:32;;;;;;;16.85;11.73;;;;;;;3.90;71.14;98404.59;5100985;29;20407;-69
2021/12/06 00:19:22;;;;;;;18.95;11.30;;;;;;;3.84;70.78;98405.94;5087929;29;20130;-70
2021/12/06 00:22:15;;;;;;;16.77;10.85;;;;;;;3.81;71.58;98403.53;5102174;29;20063;-70
2021/12/06 00:25:09;;;;;;;19.07;12.07;;;;;;;3.82;71.07;98405.19;5107880;29;20458;-71
2021/12/06 00:27:59;;;;;;;19.00;11.75;;;;;;;3.84;71.23;98405.94;5088705;29;20147;-70
2021/12/06 00:30:50;;;;;;;21.23;12.93;;;;;;;3.79;72.19;98402.81;5100760;29;20079;-70
2021/12/06 00:33:43;;;;;;;23.63;13.52;;;;;;;3.73;72.21;98404.09;5101017;29;20176;-69
2021/12/06 00:36:37;;;;;;;20.63;13.02;;;;;;;3.72;72.43;98401.59;5100767;29;20059;-68
2021/12/06 00:39:27;;;;;;;21.48;12.82;;;;;;;3.66;72.25;98396.81;5106377;29;20047;-70
2021/12/06 00:42:20;;;;;;;23.60;13.43;;;;;;;3.53;72.43;98376.75;5104377;29;20051;-69
2021/12/06 00:45:10;;;;;;;22.48;14.05;;;;;;;3.59;73.04;98419.19;5111140;29;20050;-69
2021/12/06 00:48:02;;;;;;;22.17;14.00;;;;;;;3.69;72.67;98402.66;5116452;29;20133;-70
2021/12/06 00:50:52;;;;;;;25.60;13.35;;;;;;;3.68;72.46;98406.22;5124507;28;20518;-68
2021/12/06 00:53:44;;;;;;;19.35;12.50;;;;;;;3.74;72.82;98425.91;5124513;28;20073;-69
2021/12/06 00:56:34;;;;;;;21.20;14.07;;;;;;;3.66;72.54;98417.78;5109663;28;20073;-69
2021/12/06 00:59:24;;;;;;;21.65;14.00;;;;;;;3.70;73.06;98429.69;5117080;29;20154;-69
2021/12/06 01:02:16;;;;;;;21.65;14.07;;;;;;;3.78;72.99;98431.78;5115597;29;20580;-68
2021/12/06 01:05:08;;;;;;;23.55;14.23;;;;;;;3.73;72.52;98427.69;5124582;29;20525;-69
2021/12/06 01:07:58;;;;;;;22.15;13.15;;;;;;;3.87;72.02;98436.31;5123320;28;20101;-69
2021/12/06 01:10:49;;;;;;;22.15;13.48;;;;;;;3.94;71.69;98437.50;5114712;28;20063;-67
2021/12/06 01:13:40;;;;;;;19.95;13.30;;;;;;;3.91;70.98;98445.63;5104127;29;20058;-69
2021/12/06 01:16:30;;;;;;;21.38;13.68;;;;;;;3.87;72.02;98450.25;5104206;29;20058;-68
2021/12/06 01:19:28;;;;;;;20.90;13.68;;;;;;;3.81;71.35;98452.50;5104247;29;20059;-68
2021/12/06 01:25:25;;;;;;;23.63;13.88;;;;;;;3.74;71.38;98441.63;5103526;29;20179;-69
2021/12/06 01:28:47;;;;;;;26.15;14.80;;;;;;;3.62;71.29;98434.69;5113108;29;20059;-69
2021/12/06 01:40:31;;;;;;;25.50;16.70;;;;;;;3.83;71.51;98480.28;5123749;28;20054;-69
2021/12/06 01:43:22;;;;;;;25.30;15.77;;;;;;;3.87;71.47;98499.25;5095580;29;20060;-67
2021/12/06 01:46:13;;;;;;;30.10;16.90;;;;;;;3.84;71.60;98499.47;5102689;29;20529;-69
2021/12/06 01:49:06;;;;;;;31.30;17.63;;;;;;;3.73;71.67;98490.63;5103368;29;20080;-69
2021/12/06 01:52:00;;;;;;;28.73;15.82;;;;;;;3.90;71.67;98510.34;5103999;29;20051;-70
2021/12/06 01:54:54;;;;;;;24.48;14.80;;;;;;;3.86;71.02;98498.41;5104121;29;20093;-67
2021/12/06 01:57:45;;;;;;;25.98;15.88;;;;;;;3.70;71.86;98498.69;5104266;29;20190;-69
2021/12/06 02:00:38;;;;;;;28.67;16.92;;;;;;;3.73;72.65;98497.66;5125606;28;20055;-70
2021/12/06 02:03:34;;;;;;;24.27;15.55;;;;;;;3.84;71.72;98499.47;5114671;28;20046;-69
2021/12/06 02:06:25;;;;;;;24.48;16.00;;;;;;;3.94;71.72;98508.34;5122573;28;20571;-69
2021/12/06 02:09:18;;;;;;;23.90;15.65;;;;;;;3.98;71.85;98501.94;5124374;29;20062;-70
2021/12/06 02:12:12;;;;;;;24.80;16.08;;;;;;;3.92;71.88;98497.97;5122765;28;20048;-68
2021/12/06 02:15:09;;;;;;;24.73;15.10;;;;;;;4.05;71.28;98508.38;5083821;29;20073;-68
2021/12/06 02:18:10;;;;;;;26.33;16.83;;;;;;;4.09;70.14;98519.47;5082645;29;20586;-69
2021/12/06 02:21:20;;;;;;;26.40;15.77;;;;;;;3.81;71.20;98508.44;5083308;29;20056;-69
2021/12/06 02:24:11;;;;;;;26.10;15.95;;;;;;;3.87;71.21;98514.97;5083556;29;20099;-69
2021/12/06 02:27:01;;;;;;;29.50;15.75;;;;;;;3.83;71.14;98534.53;5093538;29;20418;-67
2021/12/06 02:29:55;;;;;;;26.20;15.73;;;;;;;3.81;72.30;98537.28;5111943;29;20046;-67
2021/12/06 02:32:47;;;;;;;28.98;16.00;;;;;;;3.80;71.60;98529.50;5115502;28;20565;-69
2021/12/06 02:35:37;;;;;;;28.95;15.85;;;;;;;3.90;71.42;98535.75;5123578;29;20130;-69
2021/12/06 02:38:29;;;;;;;27.17;17.02;;;;;;;3.84;71.41;98544.06;5123543;29;20524;-69
2021/12/06 02:41:21;;;;;;;28.40;17.40;;;;;;;3.62;72.27;98527.28;5116409;28;20406;-69
2021/12/06 02:44:11;;;;;;;26.23;16.73;;;;;;;3.66;73.02;98544.47;5102938;29;20581;-70
2021/12/06 02:47:01;;;;;;;29.17;16.70;;;;;;;3.82;72.89;98548.59;5100943;29;20070;-70
2021/12/06 02:49:51;;;;;;;28.67;17.77;;;;;;;3.87;71.82;98549.06;5112990;28;20050;-70
2021/12/06 02:52:41;;;;;;;27.13;17.60;;;;;;;3.71;72.75;98542.34;5102965;29;20094;-69
2021/12/06 02:55:36;;;;;;;30.17;17.80;;;;;;;3.60;73.26;98547.53;5101625;29;20048;-70
2021/12/06 03:01:47;;;;;;;31.75;18.30;;;;;;;3.60;73.06;98547.53;5110698;29;20445;-69
2021/12/06 03:04:39;;;;;;;31.75;18.20;;;;;;;3.70;72.92;98551.16;5110740;28;20537;-69
2021/12/06 03:07:31;;;;;;;25.65;17.00;;;;;;;3.71;72.25;98542.34;5100924;29;20548;-69
2021/12/06 03:10:21;;;;;;;28.42;15.98;;;;;;;3.83;72.08;98553.72;5101834;29;20058;-69
2021/12/06 03:13:11;;;;;;;26.63;17.52;;;;;;;3.85;71.74;98561.50;5102544;29;20793;-68
2021/12/06 03:16:03;;;;;;;27.92;18.50;;;;;;;3.92;71.73;98557.47;5100934;29;20051;-70
2021/12/06 03:18:55;;;;;;;28.52;18.20;;;;;;;3.82;71.22;98549.44;5102250;29;20048;-68
2021/12/06 03:21:45;;;;;;;27.63;17.85;;;;;;;3.85;71.63;98556.25;5101693;29;20103;-67
2021/12/06 03:24:36;;;;;;;31.05;19.83;;;;;;;3.68;72.02;98553.06;5101861;29;20450;-69
2021/12/06 03:27:26;;;;;;;33.60;20.27;;;;;;;3.62;73.74;98574.47;5099608;29;20051;-70
2021/12/06 03:30:18;;;;;;;33.67;21.00;;;;;;;3.80;72.26;98571.47;5110952;28;20051;-69
2021/12/06 03:33:09;;;;;;;34.60;21.30;;;;;;;3.82;71.92;98574.81;5110397;28;20055;-69
2021/12/06 03:35:59;;;;;;;32.53;20.08;;;;;;;3.81;71.99;98596.72;5112640;28;20054;-69
2021/12/06 03:38:51;;;;;;;33.25;20.23;;;;;;;3.64;73.04;98583.06;5122694;29;20187;-68
2021/12/06 03:41:42;;;;;;;30.45;19.33;;;;;;;3.76;71.85;98586.59;5121081;28;20066;-69
2021/12/06 03:44:33;;;;;;;32.78;18.92;;;;;;;4.00;72.45;98599.69;5121455;29;20057;-69
2021/12/06 03:47:30;;;;;;;34.47;19.27;;;;;;;4.05;71.71;98602.84;5119343;29;20054;-68
2021/12/06 03:50:22;;;;;;;29.98;19.50;;;;;;;3.93;72.00;98604.56;5101051;29;20044;-69
2021/12/06 03:53:14;;;;;;;30.13;18.60;;;;;;;4.03;71.38;98596.00;5101029;29;20096;-68
2021/12/06 03:56:05;;;;;;;29.45;18.63;;;;;;;4.06;71.48;98612.38;5100582;29;20039;-69
2021/12/06 03:58:56;;;;;;;29.73;19.48;;;;;;;3.94;72.11;98605.38;5105609;29;20536;-69
2021/12/06 04:01:47;;;;;;;32.30;19.77;;;;;;;4.00;71.59;98597.06;5109224;28;20050;-70
2021/12/06 04:04:42;;;;;;;33.90;19.90;;;;;;;4.06;71.58;98603.66;5099659;29;20138;-69
2021/12/06 04:07:34;;;;;;;39.38;20.67;;;;;;;4.08;71.65;98607.84;5100443;29;20043;-70
2021/12/06 04:10:26;;;;;;;32.35;19.83;;;;;;;3.99;71.18;98609.34;5102245;29;20141;-68
2021/12/06 04:13:16;;;;;;;29.15;19.75;;;;;;;3.86;71.19;98608.56;5100460;29;20125;-69
2021/12/06 04:16:07;;;;;;;32.78;20.13;;;;;;;3.89;71.39;98610.13;5100494;29;20171;-68
2021/12/06 04:19:02;;;;;;;34.33;21.80;;;;;;;3.94;71.17;98621.13;5101097;29;20048;-69
2021/12/06 04:21:53;;;;;;;36.22;23.30;;;;;;;3.85;71.73;98622.63;5100534;29;20048;-69
2021/12/06 04:24:45;;;;;;;38.22;23.45;;;;;;;3.70;72.35;98619.31;5101500;29;20581;-69
2021/12/06 04:27:36;;;;;;;36.17;22.92;;;;;;;3.78;72.57;98631.91;5098712;29;20048;-68
2021/12/06 04:30:27;;;;;;;36.17;22.77;;;;;;;3.81;72.70;98629.06;5106913;29;20090;-69
2021/12/06 04:33:18;;;;;;;34.58;22.30;;;;;;;3.74;72.80;98626.03;5109788;29;20058;-69
2021/12/06 04:36:10;;;;;;;33.83;21.60;;;;;;;3.84;72.73;98631.47;5101813;29;20186;-69
2021/12/06 04:39:01;;;;;;;33.90;21.50;;;;;;;3.91;71.87;98637.09;5119111;28;20051;-68
2021/12/06 04:41:51;;;;;;;32.10;21.02;;;;;;;3.94;71.65;98642.09;5113657;29;20051;-68
2021/12/06 04:44:42;;;;;;;36.08;22.27;;;;;;;3.86;72.39;98642.66;5120841;29;20435;-69
2021/12/06 04:47:32;;;;;;;35.35;22.25;;;;;;;3.86;72.18;98653.16;5120583;29;20045;-69
2021/12/06 04:50:27;;;;;;;41.60;24.77;;;;;;;3.92;71.88;98657.13;5105841;28;20055;-68
2021/12/06 04:53:22;;;;;;;42.47;25.33;;;;;;;3.61;72.83;98651.47;5107694;29;20182;-68
2021/12/06 04:56:25;;;;;;;42.35;25.52;;;;;;;3.58;73.22;98667.41;5111904;28;20047;-68
2021/12/06 04:59:20;;;;;;;42.53;25.13;;;;;;;3.83;72.49;98663.88;5088141;29;20545;-69
2021/12/06 05:02:19;;;;;;;45.72;25.50;;;;;;;3.68;72.55;98667.59;5105460;28;20043;-69
2021/12/06 05:05:18;;;;;;;40.80;24.73;;;;;;;3.64;73.08;98676.59;5107238;29;20043;-69
2021/12/06 05:08:16;;;;;;;38.50;24.13;;;;;;;3.59;72.70;98658.59;5120259;29;20133;-69
2021/12/06 05:11:07;;;;;;;39.70;22.73;;;;;;;3.76;73.33;98689.69;5107473;29;20438;-68
2021/12/06 05:14:00;;;;;;;38.03;22.80;;;;;;;3.85;72.59;98693.44;5101569;29;20514;-68
2021/12/06 05:16:53;;;;;;;37.38;22.55;;;;;;;3.80;72.00;98707.81;5099557;29;20138;-68
2021/12/06 05:19:45;;;;;;;41.00;23.08;;;;;;;3.98;72.58;98719.66;5093803;29;20059;-69
2021/12/06 05:22:37;;;;;;;36.20;21.58;;;;;;;3.73;73.23;98723.16;5096687;29;20047;-68
2021/12/06 05:25:27;;;;;;;35.03;22.38;;;;;;;3.89;72.57;98723.75;5120872;29;20082;-70
2021/12/06 05:28:22;;;;;;;39.33;23.10;;;;;;;3.91;72.46;98724.50;5125065;29;20051;-71
2021/12/06 05:31:14;;;;;;;40.15;24.15;;;;;;;4.09;71.97;98740.72;5120169;28;20170;-71
2021/12/06 05:34:12;;;;;;;35.90;22.60;;;;;;;3.99;72.00;98727.41;5112116;29;20054;-67
2021/12/06 05:37:02;;;;;;;37.25;23.60;;;;;;;3.92;72.35;98733.19;5127581;29;20066;-70
2021/12/06 05:39:53;;;;;;;36.72;23.35;;;;;;;3.70;73.06;98707.63;5119477;29;20071;-70
2021/12/06 05:42:44;;;;;;;41.55;24.20;;;;;;;3.86;71.89;98744.13;5110607;29;20046;-69
2021/12/06 05:45:36;;;;;;;35.88;22.95;;;;;;;3.82;73.66;98734.78;5106324;29;20422;-71
2021/12/06 05:48:27;;;;;;;42.75;23.88;;;;;;;3.94;72.41;98739.16;5104940;29;20086;-69
2021/12/06 05:51:17;;;;;;;45.80;24.70;;;;;;;4.00;71.71;98750.06;5103269;29;20079;-69
2021/12/06 05:54:07;;;;;;;41.22;24.48;;;;;;;3.97;71.75;98742.44;5103532;29;20067;-69
2021/12/06 05:56:58;;;;;;;37.33;23.10;;;;;;;4.15;71.39;98770.94;5107982;29;20189;-69
2021/12/06 05:59:48;;;;;;;42.38;24.83;;;;;;;4.19;71.76;98767.13;5110745;29;20134;-67
2021/12/06 06:02:39;;;;;;;41.00;24.20;;;;;;;4.03;72.04;98771.78;5115997;29;20146;-68
2021/12/06 06:05:31;;;;;;;41.83;23.80;;;;;;;4.07;71.46;98779.31;5111828;29;20043;-70
2021/12/06 06:08:21;;;;;;;38.35;23.05;;;;;;;3.75;72.25;98785.03;5107646;29;20050;-70
2021/12/06 06:11:11;;;;;;;39.65;24.00;;;;;;;3.86;71.93;98786.91;5104925;29;20051;-69
2021/12/06 06:14:06;;;;;;;38.92;23.88;;;;;;;4.03;71.24;98793.59;5107618;29;20143;-69
2021/12/06 06:17:03;;;;;;;44.75;25.40;;;;;;;4.15;71.85;98797.16;5106871;29;20118;-69
2021/12/06 06:19:57;;;;;;;40.15;24.20;;;;;;;3.92;72.34;98786.50;5118805;23;20044;-79
2021/12/06 06:22:48;;;;;;;45.58;26.00;;;;;;;4.05;71.19;98796.97;5105173;29;20052;-80
2021/12/06 06:25:39;;;;;;;42.00;24.85;;;;;;;4.12;71.28;98800.84;5125317;28;20432;-79
2021/12/06 06:28:29;;;;;;;42.42;24.00;;;;;;;3.97;72.11;98804.53;5115212;28;20218;-80
2021/12/06 06:31:19;;;;;;;37.67;22.70;;;;;;;3.95;71.81;98812.50;5098775;29;20155;-80
2021/12/06 06:34:10;;;;;;;40.67;24.63;;;;;;;4.12;71.61;98819.22;5117606;28;20143;-81
2021/12/06 06:37:01;;;;;;;45.67;23.02;;;;;;;4.10;71.36;98801.88;5117721;28;20054;-79
2021/12/06 06:39:51;;;;;;;43.15;27.17;;;;;;;4.18;70.71;98800.41;5116046;28;20532;-80
2021/12/06 06:42:42;;;;;;;80.40;49.17;;;;;;;4.29;70.48;98819.81;5084937;29;20575;-79
2021/12/06 06:45:33;;;;;;;42.60;26.05;;;;;;;4.29;70.55;98830.31;5122862;28;20419;-80
2021/12/06 06:48:24;;;;;;;41.53;24.40;;;;;;;3.99;71.30;98813.13;5117255;28;20067;-83
2021/12/06 06:51:14;;;;;;;36.75;23.83;;;;;;;4.16;71.11;98844.28;5131450;28;20050;-78
2021/12/06 06:54:05;;;;;;;44.22;23.50;;;;;;;4.09;71.28;98840.41;5089009;29;20100;-79
2021/12/06 06:56:55;;;;;;;39.55;23.67;;;;;;;3.99;71.68;98834.97;5085090;29;20155;-79
2021/12/06 06:59:45;;;;;;;47.03;25.05;;;;;;;4.12;71.04;98850.69;5086446;29;20683;-79
2021/12/06 07:02:35;;;;;;;45.90;27.55;;;;;;;4.07;71.26;98855.41;5085904;29;20545;-79
2021/12/06 07:05:26;;;;;;;37.90;23.48;;;;;;;4.13;70.60;98852.38;5104596;29;20051;-83
2021/12/06 07:08:17;;;;;;;39.60;24.00;;;;;;;4.16;71.06;98878.41;5112879;29;20070;-79
2021/12/06 07:11:07;;;;;;;43.35;23.83;;;;;;;4.19;71.07;98874.72;5108331;29;20048;-84
2021/12/06 07:13:58;;;;;;;39.35;24.23;;;;;;;4.05;71.32;98870.44;5093736;29;20139;-78
2021/12/06 07:16:48;;;;;;;39.63;23.27;;;;;;;4.18;71.18;98876.50;5108274;29;20708;-79
2021/12/06 07:19:38;;;;;;;46.30;25.50;;;;;;;4.14;71.47;98885.56;5115152;29;20142;-81
2021/12/06 07:22:29;;;;;;;48.00;26.52;;;;;;;3.63;72.51;98843.56;5104521;29;20102;-79
2021/12/06 07:25:21;;;;;;;41.35;25.13;;;;;;;4.09;71.71;98865.81;5104168;29;20078;-79
2021/12/06 07:28:12;;;;;;;44.13;25.67;;;;;;;4.11;71.10;98874.44;5105103;29;20421;-79
2021/12/06 07:31:05;;;;;;;43.45;25.33;;;;;;;4.13;71.10;98883.00;5120066;28;20098;-79
2021/12/06 07:33:56;;;;;;;40.67;23.67;;;;;;;3.93;71.16;98866.84;5123802;28;20049;-80
2021/12/06 07:36:47;;;;;;;43.92;25.55;;;;;;;4.17;71.09;98898.47;5106453;28;20050;-79
2021/12/06 07:39:37;;;;;;;44.80;26.40;;;;;;;4.24;71.21;98901.50;5103768;29;20126;-79
2021/12/06 07:42:27;;;;;;;44.33;25.88;;;;;;;4.07;71.38;98888.69;5104984;29;20051;-78
2021/12/06 07:45:18;;;;;;;45.13;27.25;;;;;;;4.11;71.39;98875.28;5104560;29;20126;-80
2021/12/06 07:48:08;;;;;;;48.13;26.60;;;;;;;3.88;72.45;98902.25;5103917;29;20067;-79
2021/12/06 07:50:59;;;;;;;46.35;27.40;;;;;;;3.94;72.01;98905.28;5119549;29;20051;-79
2021/12/06 07:53:51;;;;;;;49.45;26.42;;;;;;;3.72;72.40;98881.44;5116287;29;20227;-80
2021/12/06 07:56:43;;;;;;;46.65;26.90;;;;;;;4.21;72.61;98922.72;5120543;28;20048;-80
2021/12/06 07:59:34;;;;;;;45.78;26.10;;;;;;;4.02;72.69;98912.63;5118435;28;20065;-79
2021/12/06 08:02:24;;;;;;;48.40;26.92;;;;;;;4.23;71.67;98912.94;5123629;28;20577;-79
2021/12/06 08:05:30;;;;;;;45.95;26.38;;;;;;;4.15;71.58;98910.84;5136675;28;20057;-80
2021/12/06 08:08:25;;;;;;;47.22;26.52;;;;;;;4.19;71.70;98899.19;5122561;28;20454;-80
2021/12/06 08:11:19;;;;;;;42.03;25.17;;;;;;;3.81;73.45;98900.94;5122402;28;20070;-79
2021/12/06 08:14:10;;;;;;;46.85;26.05;;;;;;;3.89;72.45;98912.59;5102671;29;20067;-79
2021/12/06 08:17:00;;;;;;;44.03;25.60;;;;;;;4.08;71.93;98921.88;5103459;29;20050;-79
2021/12/06 08:19:50;;;;;;;47.80;26.05;;;;;;;4.31;71.47;98922.91;5102961;29;20063;-79
2021/12/06 08:22:40;;;;;;;44.72;26.10;;;;;;;4.32;70.85;98912.28;5103133;29;20089;-80
2021/12/06 08:25:32;;;;;;;45.35;25.02;;;;;;;4.13;72.29;98925.00;5102635;29;20071;-80
2021/12/06 08:28:24;;;;;;;47.78;24.50;;;;;;;4.39;71.39;98938.97;5103983;29;20218;-80
2021/12/06 08:31:16;;;;;;;40.63;23.67;;;;;;;4.46;71.34;98924.47;5103966;29;20078;-80
2021/12/06 08:34:06;;;;;;;43.63;24.48;;;;;;;4.45;70.58;98931.50;5103202;29;20592;-79
2021/12/06 08:36:56;;;;;;;46.45;24.45;;;;;;;4.53;70.05;98936.22;5103220;29;20055;-80
2021/12/06 08:39:46;;;;;;;43.72;25.17;;;;;;;4.48;71.29;98933.91;5084838;29;20190;-80
2021/12/06 08:42:36;;;;;;;38.45;23.52;;;;;;;4.63;70.80;98942.50;5119113;28;20152;-80
2021/12/06 08:45:28;;;;;;;41.10;24.30;;;;;;;4.57;70.53;98955.22;5123927;28;20057;-80
2021/12/06 08:48:22;;;;;;;39.40;24.30;;;;;;;4.64;70.79;98943.34;5122656;28;20047;-80
2021/12/06 08:51:16;;;;;;;43.72;23.23;;;;;;;4.65;69.67;98937.97;5122910;29;20077;-80
2021/12/06 08:54:08;;;;;;;38.97;23.15;;;;;;;4.81;70.64;98963.19;5083601;29;20626;-80
2021/12/06 08:57:01;;;;;;;42.60;24.02;;;;;;;4.86;70.94;98961.06;5082692;29;20063;-80
2021/12/06 08:59:52;;;;;;;42.15;23.50;;;;;;;4.63;69.97;98954.78;5104143;29;20528;-80
2021/12/06 09:02:42;;;;;;;38.63;23.73;;;;;;;4.61;70.69;98968.03;5106576;29;20425;-80
2021/12/06 09:05:47;;;;;;;39.85;23.42;;;;;;;4.75;70.65;98961.81;5106227;29;20531;-80
2021/12/06 09:08:40;;;;;;;41.35;23.98;;;;;;;4.98;70.55;98962.81;5106967;29;20048;-80
2021/12/06 09:11:30;;;;;;;116.47;44.67;;;;;;;5.01;70.89;98938.13;5103232;29;20054;-80
2021/12/06 09:14:21;;;;;;;44.35;24.85;;;;;;;4.93;70.02;98950.03;5106144;29;20059;-80
2021/12/06 09:17:13;;;;;;;46.30;24.95;;;;;;;4.87;71.33;98970.63;5107138;29;20048;-80
2021/12/06 09:20:06;;;;;;;46.80;25.80;;;;;;;5.11;70.41;98966.25;5107290;29;20074;-80
2021/12/06 09:22:57;;;;;;;44.63;24.10;;;;;;;5.08;70.38;98970.88;5106236;29;20145;-80
2021/12/06 09:25:47;;;;;;;59.10;26.80;;;;;;;5.01;71.32;98959.13;5105964;29;20134;-80
2021/12/06 09:28:38;;;;;;;56.92;27.98;;;;;;;5.20;70.70;98975.28;5105724;29;20055;-79
2021/12/06 09:31:29;;;;;;;56.40;27.55;;;;;;;5.37;70.21;98967.00;5106006;29;20052;-79
2021/12/06 09:34:20;;;;;;;58.47;27.98;;;;;;;5.51;69.08;98975.66;5107903;29;20078;-78
2021/12/06 09:37:11;;;;;;;61.20;30.15;;;;;;;5.58;69.68;98987.41;5108809;29;20058;-80
2021/12/06 09:40:04;;;;;;;52.67;26.50;;;;;;;5.44;69.72;98980.53;5110262;29;20127;-80
2021/12/06 09:42:58;;;;;;;61.08;27.80;;;;;;;5.13;71.02;98984.53;5107769;29;20490;-79
2021/12/06 09:45:49;;;;;;;66.20;26.60;;;;;;;4.74;72.57;98977.69;5119793;28;20052;-81
2021/12/06 09:48:42;;;;;;;62.35;28.92;;;;;;;5.09;71.46;98986.53;5106450;29;20130;-80
2021/12/06 09:51:33;;;;;;;67.65;28.60;;;;;;;5.50;70.49;98987.16;5111518;29;20051;-79
2021/12/06 09:54:30;;;;;;;73.18;31.92;;;;;;;5.79;69.35;98992.88;5127889;29;20054;-78
2021/12/06 09:57:20;;;;;;;78.97;30.52;;;;;;;5.60;69.28;98983.72;5110165;29;20059;-78
2021/12/06 10:00:12;;;;;;;67.10;29.60;;;;;;;5.51;69.87;98979.13;5109995;29;20634;-78
2021/12/06 10:03:03;;;;;;;68.55;30.95;;;;;;;5.75;69.92;98981.75;5110307;29;20095;-77
2021/12/06 10:05:57;;;;;;;71.43;30.63;;;;;;;5.81;70.13;98986.56;5109058;29;20067;-80
2021/12/06 10:08:50;;;;;;;71.10;31.25;;;;;;;5.29;71.69;98984.25;5116212;29;20413;-79
2021/12/06 10:11:42;;;;;;;77.22;30.73;;;;;;;5.18;72.37;98969.28;5111589;29;20124;-79
2021/12/06 10:14:35;;;;;;;70.90;31.52;;;;;;;5.60;71.48;98975.84;5112661;29;20055;-79
2021/12/06 10:17:32;;;;;;;74.78;31.13;;;;;;;5.68;70.48;98959.47;5110739;29;20142;-79
2021/12/06 10:20:25;;;;;;;73.00;31.27;;;;;;;6.03;69.55;98972.69;5109305;29;20066;-80
2021/12/06 10:23:19;;;;;;;54.35;21.88;;;;;;;6.02;69.56;98957.81;5108314;29;20103;-79
2021/12/06 10:26:13;;;;;;;59.55;28.15;;;;;;;5.86;68.97;98957.25;5105823;29;20561;-79
2021/12/06 10:29:08;;;;;;;64.63;28.80;;;;;;;5.48;69.81;98916.25;5108436;29;20532;-78
2021/12/06 10:31:58;;;;;;;65.13;28.63;;;;;;;5.47;70.10;98932.16;5108348;29;20536;-78
2021/12/06 10:34:57;;;;;;;69.60;28.50;;;;;;;5.32;69.92;98937.56;5104262;29;20167;-80
2021/12/06 10:37:56;;;;;;;56.17;26.58;;;;;;;5.42;70.68;98937.72;5103755;29;20055;-79
2021/12/06 10:40:46;;;;;;;60.25;27.83;;;;;;;5.78;69.35;98955.22;5104964;29;20422;-78
2021/12/06 10:43:37;;;;;;;56.35;26.92;;;;;;;5.56;70.53;98936.72;5105297;29;20043;-78
2021/12/06 10:46:31;;;;;;;51.45;25.30;;;;;;;5.65;69.64;98955.28;5103389;29;20095;-78
2021/12/06 10:49:25;;;;;;;49.63;25.05;;;;;;;5.91;68.62;98935.88;5117207;28;20518;-79
2021/12/06 10:52:27;;;;;;;48.97;23.83;;;;;;;5.50;68.63;98945.06;5103406;29;20115;-79
2021/12/06 10:55:19;;;;;;;46.28;23.55;;;;;;;5.65;69.96;98931.59;5104302;29;20528;-79
2021/12/06 10:58:19;;;;;;;49.45;24.55;;;;;;;6.04;67.88;98953.28;5105149;29;20059;-79
2021/12/06 11:01:19;;;;;;;47.28;22.92;;;;;;;6.10;67.94;98937.03;5103918;29;20051;-78
2021/12/06 11:04:13;;;;;;;48.38;23.08;;;;;;;5.98;68.20;98940.59;5105193;29;20051;-79
2021/12/06 11:07:08;;;;;;;45.40;22.30;;;;;;;5.80;68.81;98955.09;5104157;29;20048;-78
2021/12/06 11:10:04;;;;;;;44.70;22.13;;;;;;;6.19;67.38;98939.91;5104691;29;20202;-78
2021/12/06 11:13:15;;;;;;;44.80;21.27;;;;;;;5.97;68.41;98949.44;5103761;29;20058;-79
2021/12/06 11:16:05;;;;;;;39.55;21.30;;;;;;;6.14;67.21;98948.16;5103170;29;20050;-80
2021/12/06 11:19:00;;;;;;;36.15;18.42;;;;;;;6.04;66.64;98928.75;5104088;29;20494;-78
2021/12/06 11:21:59;;;;;;;36.40;19.27;;;;;;;6.09;66.64;98931.88;5102801;29;20261;-78
2021/12/06 11:24:51;;;;;;;35.08;17.02;;;;;;;6.49;66.61;98927.03;5103886;29;20048;-78
2021/12/06 11:27:44;;;;;;;32.20;17.58;;;;;;;6.45;66.44;98912.41;5103496;29;20078;-79
2021/12/06 11:30:35;;;;;;;34.55;17.80;;;;;;;6.47;66.32;98910.50;5108532;28;20579;-79
2021/12/06 11:33:32;;;;;;;30.85;17.20;;;;;;;6.41;65.52;98926.75;5107689;29;20048;-84
2021/12/06 11:36:23;;;;;;;31.10;16.92;;;;;;;6.46;65.91;98927.25;5104002;29;20137;-81
2021/12/06 11:39:17;;;;;;;35.72;17.70;;;;;;;6.69;66.60;98935.13;5102738;29;20094;-79
2021/12/06 11:42:07;;;;;;;43.97;20.40;;;;;;;6.40;66.49;98919.84;5104182;29;20053;-83
2021/12/06 11:44:58;;;;;;;47.25;22.58;;;;;;;6.34;68.03;98931.66;5104915;29;20453;-81
2021/12/06 11:48:09;;;;;;;45.33;21.45;;;;;;;6.45;67.09;98930.84;5104480;29;20565;-78
2021/12/06 11:51:12;;;;;;;53.33;23.50;;;;;;;6.39;66.05;98927.84;5103830;29;20451;-78
2021/12/06 11:54:02;;;;;;;43.35;20.95;;;;;;;5.87;68.20;98915.06;5105521;29;20150;-83
2021/12/06 11:56:52;;;;;;;47.30;22.98;;;;;;;6.36;66.73;98936.84;5119244;28;20110;-82
2021/12/06 11:59:56;;;;;;;40.10;20.15;;;;;;;6.44;66.49;98942.34;5104338;29;20062;-81
2021/12/06 12:02:55;;;;;;;42.15;22.88;;;;;;;6.62;65.57;98952.38;5149097;23;20047;-71
2021/12/06 12:05:45;;;;;;;43.92;22.75;;;;;;;6.52;67.03;98945.22;5145770;28;20112;-73
2021/12/06 12:08:36;;;;;;;38.50;19.60;;;;;;;6.08;66.41;98938.94;5140315;28;20128;-75
2021/12/06 12:11:26;;;;;;;40.72;20.17;;;;;;;6.07;67.98;98960.13;5140029;28;20058;-76
2021/12/06 12:14:24;;;;;;;40.40;20.48;;;;;;;6.07;66.31;98953.06;5140413;28;20128;-75
2021/12/06 12:17:20;;;;;;;45.95;22.60;;;;;;;6.42;66.10;98943.41;5146738;28;20049;-72
2021/12/06 12:20:10;;;;;;;38.33;20.70;;;;;;;6.54;65.45;98924.84;5150985;28;20532;-77
2021/12/06 12:23:05;;;;;;;37.83;20.05;;;;;;;6.44;65.99;98931.78;5144438;28;20133;-73
2021/12/06 12:26:01;;;;;;;42.53;21.17;;;;;;;6.36;65.86;98934.19;5159712;28;20052;-76
2021/12/06 12:28:59;;;;;;;48.08;25.23;;;;;;;6.39;66.59;98920.78;5152526;28;20126;-76
2021/12/06 12:31:56;;;;;;;50.92;23.88;;;;;;;6.78;66.54;98926.50;5156061;28;20053;-74
2021/12/06 12:34:49;;;;;;;41.22;20.98;;;;;;;6.50;65.69;98920.78;5157276;28;20057;-75
2021/12/06 12:37:41;;;;;;;44.88;21.75;;;;;;;6.28;67.21;98926.03;5162935;28;20049;-72
2021/12/06 12:40:54;;;;;;;42.33;22.13;;;;;;;6.65;65.82;98918.72;5159370;28;20493;-72
2021/12/06 12:43:48;;;;;;;44.95;21.38;;;;;;;6.42;66.15;98922.34;5160089;28;20460;-74
2021/12/06 12:46:40;;;;;;;38.63;20.95;;;;;;;6.65;64.98;98910.81;5152215;28;20718;-78
2021/12/06 12:49:31;;;;;;;39.13;21.48;;;;;;;6.67;65.05;98902.81;5153278;28;20680;-78
2021/12/06 12:52:42;;;;;;;44.05;20.98;;;;;;;6.74;64.63;98890.81;5153477;28;20513;-75
2021/12/06 12:55:42;;;;;;;43.20;20.10;;;;;;;6.79;63.98;98900.06;5136951;28;20053;-76
2021/12/06 12:58:39;;;;;;;44.00;21.45;;;;;;;6.86;65.08;98895.13;5156008;28;20057;-77
2021/12/06 13:01:29;;;;;;;38.78;21.17;;;;;;;6.88;64.66;98897.63;5149971;28;20053;-75
2021/12/06 13:04:22;;;;;;;36.40;19.70;;;;;;;6.77;64.35;98901.13;5156735;28;20047;-76
2021/12/06 13:07:15;;;;;;;33.58;18.55;;;;;;;6.34;65.52;98905.34;5148748;28;20056;-76
2021/12/06 13:10:23;;;;;;;40.17;21.77;;;;;;;6.63;65.58;98901.41;5153944;28;20069;-76
2021/12/06 13:13:30;;;;;;;41.83;20.98;;;;;;;6.61;64.69;98904.13;5160301;28;20049;-74
2021/12/06 13:16:54;;;;;;;42.80;21.42;;;;;;;6.52;64.76;98908.34;5155869;28;20793;-73
2021/12/06 13:19:55;;;;;;;38.65;20.60;;;;;;;6.42;65.15;98911.78;5160951;28;20048;-73
2021/12/06 13:22:51;;;;;;;42.92;20.67;;;;;;;6.43;65.71;98903.78;5163710;28;20459;-73
2021/12/06 13:25:41;;;;;;;39.92;18.92;;;;;;;6.34;66.17;98902.69;5141647;28;20055;-73
2021/12/06 13:29:01;;;;;;;45.55;20.70;;;;;;;6.31;65.94;98910.84;5124326;28;20095;-73
2021/12/06 13:31:57;;;;;;;36.85;19.77;;;;;;;6.32;65.86;98904.63;5134651;28;20042;-73
2021/12/06 13:34:47;;;;;;;35.95;18.95;;;;;;;6.24;65.78;98898.28;5144842;28;20098;-73
2021/12/06 13:37:38;;;;;;;41.75;20.77;;;;;;;6.20;65.90;98910.00;5144598;28;20051;-73
2021/12/06 13:40:31;;;;;;;42.08;20.08;;;;;;;6.20;66.19;98899.47;5143755;28;20173;-73